sensor_id;sensor_type;location;lat;lon;timestamp;temperature;humidity
19292;DHT22;9779;51.756;7.450;2022-12-07T00:01:12;5.00;99.90
19292;DHT22;9779;51.756;7.450;2022-12-07T00:03:39;5.00;99.90
19292;DHT22;9779;51.756;7.450;2022-12-07T00:06:09;4.90;99.90
19292;DHT22;9779;51.756;7.450;2022-12-07T00:08:35;4.90;99.90
19292;DHT22;9779;51.756;7.450;2022-12-07T00:11:10;5.00;99.90
19292;DHT22;9779;51.756;7.450;2022-12-07T00:13:37;4.90;99.90
19292;DHT22;9779;51.756;7.450;2022-12-07T00:16:05;4.90;99.90
19292;DHT22;9779;51.756;7.450;2022-12-07T00:18:31;4.90;99.90
19292;DHT22;9779;51.756;7.450;2022-12-07T00:21:01;4.90;99.90
19292;DHT22;9779;51.756;7.450;2022-12-07T00:23:26;5.00;99.90
19292;DHT22;9779;51.756;7.450;2022-12-07T00:25:52;5.00;99.90
19292;DHT22;9779;51.756;7.450;2022-12-07T00:28:17;5.00;99.90
19292;DHT22;9779;51.756;7.450;2022-12-07T00:30:43;5.00;99.90
19292;DHT22;9779;51.756;7.450;2022-12-07T00:33:08;5.00;99.90
19292;DHT22;9779;51.756;7.450;2022-12-07T00:35:34;5.00;99.90
19292;DHT22;9779;51.756;7.450;2022-12-07T00:37:59;5.00;99.90
19292;DHT22;9779;51.756;7.450;2022-12-07T00:40:25;5.00;99.90
19292;DHT22;9779;51.756;7.450;2022-12-07T00:42:50;5.00;99.90
19292;DHT22;9779;51.756;7.450;2022-12-07T00:45:16;5.00;99.90
19292;DHT22;9779;51.756;7.450;2022-12-07T00:47:41;5.00;99.90
19292;DHT22;9779;51.756;7.450;2022-12-07T00:50:07;5.00;99.90
19292;DHT22;9779;51.756;7.450;2022-12-07T00:52:33;5.00;99.90
19292;DHT22;9779;51.756;7.450;2022-12-07T00:54:58;5.00;99.90
19292;DHT22;9779;51.756;7.450;2022-12-07T00:57:24;5.00;99.90
19292;DHT22;9779;51.756;7.450;2022-12-07T00:59:49;5.00;99.90
19292;DHT22;9779;51.756;7.450;2022-12-07T01:02:15;5.00;99.90
19292;DHT22;9779;51.756;7.450;2022-12-07T01:04:41;4.90;99.90
19292;DHT22;9779;51.756;7.450;2022-12-07T01:07:06;4.90;99.90
19292;DHT22;9779;51.756;7.450;2022-12-07T01:09:32;4.90;99.90
19292;DHT22;9779;51.756;7.450;2022-12-07T01:11:57;4.90;99.90
19292;DHT22;9779;51.756;7.450;2022-12-07T01:14:23;4.90;99.90
19292;DHT22;9779;51.756;7.450;2022-12-07T01:16:48;4.90;99.90
19292;DHT22;9779;51.756;7.450;2022-12-07T01:19:14;4.90;99.90
19292;DHT22;9779;51.756;7.450;2022-12-07T01:21:39;4.90;99.90
19292;DHT22;9779;51.756;7.450;2022-12-07T01:24:08;4.90;99.90
19292;DHT22;9779;51.756;7.450;2022-12-07T01:26:34;4.80;99.90
19292;DHT22;9779;51.756;7.450;2022-12-07T01:29:00;4.90;99.90
19292;DHT22;9779;51.756;7.450;2022-12-07T01:31:27;4.80;99.90
19292;DHT22;9779;51.756;7.450;2022-12-07T01:33:55;4.90;99.90
19292;DHT22;9779;51.756;7.450;2022-12-07T01:36:26;4.90;99.90
19292;DHT22;9779;51.756;7.450;2022-12-07T01:38:57;4.90;99.90
19292;DHT22;9779;51.756;7.450;2022-12-07T01:41:25;4.80;99.90
19292;DHT22;9779;51.756;7.450;2022-12-07T01:46:35;4.80;99.90
19292;DHT22;9779;51.756;7.450;2022-12-07T01:49:01;4.80;99.90
19292;DHT22;9779;51.756;7.450;2022-12-07T01:51:28;4.80;99.90
19292;DHT22;9779;51.756;7.450;2022-12-07T01:53:54;4.80;99.90
19292;DHT22;9779;51.756;7.450;2022-12-07T01:56:23;4.80;99.90
19292;DHT22;9779;51.756;7.450;2022-12-07T01:58:51;4.80;99.90
19292;DHT22;9779;51.756;7.450;2022-12-07T02:01:17;4.80;99.90
19292;DHT22;9779;51.756;7.450;2022-12-07T02:03:43;4.80;99.90
19292;DHT22;9779;51.756;7.450;2022-12-07T02:06:12;4.80;99.90
19292;DHT22;9779;51.756;7.450;2022-12-07T02:08:38;4.70;99.90
19292;DHT22;9779;51.756;7.450;2022-12-07T02:11:05;4.80;99.90
19292;DHT22;9779;51.756;7.450;2022-12-07T02:13:35;4.70;99.90
19292;DHT22;9779;51.756;7.450;2022-12-07T02:16:25;4.70;99.90
19292;DHT22;9779;51.756;7.450;2022-12-07T02:25:11;4.60;99.90
19292;DHT22;9779;51.756;7.450;2022-12-07T02:27:52;4.60;99.90
19292;DHT22;9779;51.756;7.450;2022-12-07T02:30:22;4.60;99.90
19292;DHT22;9779;51.756;7.450;2022-12-07T02:33:16;4.50;99.90
19292;DHT22;9779;51.756;7.450;2022-12-07T02:36:08;4.50;99.90
19292;DHT22;9779;51.756;7.450;2022-12-07T02:38:39;4.50;99.90
19292;DHT22;9779;51.756;7.450;2022-12-07T02:41:16;4.50;99.90
19292;DHT22;9779;51.756;7.450;2022-12-07T02:43:47;4.50;99.90
19292;DHT22;9779;51.756;7.450;2022-12-07T02:46:26;4.40;99.90
19292;DHT22;9779;51.756;7.450;2022-12-07T02:48:53;4.30;99.90
19292;DHT22;9779;51.756;7.450;2022-12-07T02:51:19;4.40;99.90
19292;DHT22;9779;51.756;7.450;2022-12-07T02:53:46;4.30;99.90
19292;DHT22;9779;51.756;7.450;2022-12-07T03:02:22;4.30;99.90
19292;DHT22;9779;51.756;7.450;2022-12-07T03:07:38;4.10;99.90
19292;DHT22;9779;51.756;7.450;2022-12-07T03:10:54;4.10;99.90
19292;DHT22;9779;51.756;7.450;2022-12-07T03:18:31;4.00;99.90
19292;DHT22;9779;51.756;7.450;2022-12-07T03:21:01;4.00;99.90
19292;DHT22;9779;51.756;7.450;2022-12-07T03:23:29;4.10;99.90
19292;DHT22;9779;51.756;7.450;2022-12-07T03:25:58;4.00;99.90
19292;DHT22;9779;51.756;7.450;2022-12-07T03:28:29;4.00;99.90
19292;DHT22;9779;51.756;7.450;2022-12-07T03:31:05;3.90;99.90
19292;DHT22;9779;51.756;7.450;2022-12-07T03:33:42;3.90;99.90
19292;DHT22;9779;51.756;7.450;2022-12-07T03:36:16;4.00;99.90
19292;DHT22;9779;51.756;7.450;2022-12-07T03:38:56;3.90;99.90
19292;DHT22;9779;51.756;7.450;2022-12-07T03:41:29;4.00;99.90
19292;DHT22;9779;51.756;7.450;2022-12-07T03:43:57;4.00;99.90
19292;DHT22;9779;51.756;7.450;2022-12-07T03:46:52;4.00;99.90
19292;DHT22;9779;51.756;7.450;2022-12-07T03:49:43;3.90;99.90
19292;DHT22;9779;51.756;7.450;2022-12-07T03:52:12;3.90;99.90
19292;DHT22;9779;51.756;7.450;2022-12-07T03:57:18;3.80;99.90
19292;DHT22;9779;51.756;7.450;2022-12-07T03:59:45;3.80;99.90
19292;DHT22;9779;51.756;7.450;2022-12-07T04:02:12;3.80;99.90
19292;DHT22;9779;51.756;7.450;2022-12-07T04:04:39;3.70;99.90
19292;DHT22;9779;51.756;7.450;2022-12-07T04:07:04;3.70;99.90
19292;DHT22;9779;51.756;7.450;2022-12-07T04:09:30;3.70;99.90
19292;DHT22;9779;51.756;7.450;2022-12-07T04:11:56;3.70;99.90
19292;DHT22;9779;51.756;7.450;2022-12-07T04:14:21;3.70;99.90
19292;DHT22;9779;51.756;7.450;2022-12-07T04:16:51;3.70;99.90
19292;DHT22;9779;51.756;7.450;2022-12-07T04:19:18;3.70;99.90
19292;DHT22;9779;51.756;7.450;2022-12-07T04:21:44;3.80;99.90
19292;DHT22;9779;51.756;7.450;2022-12-07T04:24:12;3.80;99.90
19292;DHT22;9779;51.756;7.450;2022-12-07T04:26:38;3.70;99.90
19292;DHT22;9779;51.756;7.450;2022-12-07T04:29:04;3.70;99.90
19292;DHT22;9779;51.756;7.450;2022-12-07T04:31:30;3.70;99.90
19292;DHT22;9779;51.756;7.450;2022-12-07T04:33:55;3.70;99.90
19292;DHT22;9779;51.756;7.450;2022-12-07T04:36:21;3.70;99.90
19292;DHT22;9779;51.756;7.450;2022-12-07T04:38:47;3.60;99.90
19292;DHT22;9779;51.756;7.450;2022-12-07T04:41:12;3.60;99.90
19292;DHT22;9779;51.756;7.450;2022-12-07T04:43:38;3.60;99.90
19292;DHT22;9779;51.756;7.450;2022-12-07T04:46:04;3.60;99.90
19292;DHT22;9779;51.756;7.450;2022-12-07T04:48:29;3.60;99.90
19292;DHT22;9779;51.756;7.450;2022-12-07T04:50:55;3.60;99.90
19292;DHT22;9779;51.756;7.450;2022-12-07T04:53:21;3.60;99.90
19292;DHT22;9779;51.756;7.450;2022-12-07T04:55:47;3.60;99.90
19292;DHT22;9779;51.756;7.450;2022-12-07T04:58:13;3.60;99.90
19292;DHT22;9779;51.756;7.450;2022-12-07T05:00:39;3.60;99.90
19292;DHT22;9779;51.756;7.450;2022-12-07T05:03:05;3.60;99.90
19292;DHT22;9779;51.756;7.450;2022-12-07T05:05:30;3.50;99.90
19292;DHT22;9779;51.756;7.450;2022-12-07T05:07:56;3.50;99.90
19292;DHT22;9779;51.756;7.450;2022-12-07T05:10:22;3.40;99.90
19292;DHT22;9779;51.756;7.450;2022-12-07T05:12:47;3.30;99.90
19292;DHT22;9779;51.756;7.450;2022-12-07T05:15:14;3.30;99.90
19292;DHT22;9779;51.756;7.450;2022-12-07T05:17:40;3.30;99.90
19292;DHT22;9779;51.756;7.450;2022-12-07T05:20:06;3.40;99.90
19292;DHT22;9779;51.756;7.450;2022-12-07T05:22:32;3.40;99.90
19292;DHT22;9779;51.756;7.450;2022-12-07T05:24:57;3.30;99.90
19292;DHT22;9779;51.756;7.450;2022-12-07T05:27:23;3.30;99.90
19292;DHT22;9779;51.756;7.450;2022-12-07T05:29:52;3.30;99.90
19292;DHT22;9779;51.756;7.450;2022-12-07T05:32:18;3.30;99.90
19292;DHT22;9779;51.756;7.450;2022-12-07T05:34:43;3.30;99.90
19292;DHT22;9779;51.756;7.450;2022-12-07T05:37:09;3.30;99.90
19292;DHT22;9779;51.756;7.450;2022-12-07T05:39:35;3.30;99.90
19292;DHT22;9779;51.756;7.450;2022-12-07T05:42:01;3.20;99.90
19292;DHT22;9779;51.756;7.450;2022-12-07T05:44:43;3.20;99.90
19292;DHT22;9779;51.756;7.450;2022-12-07T05:47:10;3.20;99.90
19292;DHT22;9779;51.756;7.450;2022-12-07T05:49:35;3.20;99.90
19292;DHT22;9779;51.756;7.450;2022-12-07T05:52:01;3.20;99.90
19292;DHT22;9779;51.756;7.450;2022-12-07T05:54:27;3.20;99.90
19292;DHT22;9779;51.756;7.450;2022-12-07T05:56:53;3.20;99.90
19292;DHT22;9779;51.756;7.450;2022-12-07T05:59:19;3.20;99.90
19292;DHT22;9779;51.756;7.450;2022-12-07T06:02:04;3.20;99.90
19292;DHT22;9779;51.756;7.450;2022-12-07T06:04:31;3.20;99.90
19292;DHT22;9779;51.756;7.450;2022-12-07T06:06:57;3.20;99.90
19292;DHT22;9779;51.756;7.450;2022-12-07T06:09:26;3.20;99.90
19292;DHT22;9779;51.756;7.450;2022-12-07T06:11:52;3.20;99.90
19292;DHT22;9779;51.756;7.450;2022-12-07T06:14:36;3.20;99.90
19292;DHT22;9779;51.756;7.450;2022-12-07T06:17:02;3.20;99.90
19292;DHT22;9779;51.756;7.450;2022-12-07T06:19:27;3.20;99.90
19292;DHT22;9779;51.756;7.450;2022-12-07T06:21:53;3.10;99.90
19292;DHT22;9779;51.756;7.450;2022-12-07T06:24:19;3.10;99.90
19292;DHT22;9779;51.756;7.450;2022-12-07T06:26:45;3.10;99.90
19292;DHT22;9779;51.756;7.450;2022-12-07T06:29:12;3.10;99.90
19292;DHT22;9779;51.756;7.450;2022-12-07T06:31:38;3.10;99.90
19292;DHT22;9779;51.756;7.450;2022-12-07T06:34:06;3.10;99.90
19292;DHT22;9779;51.756;7.450;2022-12-07T06:36:32;3.00;99.90
19292;DHT22;9779;51.756;7.450;2022-12-07T06:38:58;3.00;99.90
19292;DHT22;9779;51.756;7.450;2022-12-07T06:41:24;3.00;99.90
19292;DHT22;9779;51.756;7.450;2022-12-07T06:43:50;3.00;99.90
19292;DHT22;9779;51.756;7.450;2022-12-07T06:46:16;2.90;99.90
19292;DHT22;9779;51.756;7.450;2022-12-07T06:48:42;2.90;99.90
19292;DHT22;9779;51.756;7.450;2022-12-07T06:51:09;2.90;99.90
19292;DHT22;9779;51.756;7.450;2022-12-07T06:53:35;2.90;99.90
19292;DHT22;9779;51.756;7.450;2022-12-07T06:56:01;2.90;99.90
19292;DHT22;9779;51.756;7.450;2022-12-07T06:58:27;2.90;99.90
19292;DHT22;9779;51.756;7.450;2022-12-07T07:00:53;2.90;99.90
19292;DHT22;9779;51.756;7.450;2022-12-07T07:03:18;2.90;99.90
19292;DHT22;9779;51.756;7.450;2022-12-07T07:05:44;2.90;99.90
19292;DHT22;9779;51.756;7.450;2022-12-07T07:08:11;2.90;99.90
19292;DHT22;9779;51.756;7.450;2022-12-07T07:10:37;2.90;99.90
19292;DHT22;9779;51.756;7.450;2022-12-07T07:13:03;2.80;99.90
19292;DHT22;9779;51.756;7.450;2022-12-07T07:15:29;2.90;99.90
19292;DHT22;9779;51.756;7.450;2022-12-07T07:17:54;2.80;99.90
19292;DHT22;9779;51.756;7.450;2022-12-07T07:20:20;2.80;99.90
19292;DHT22;9779;51.756;7.450;2022-12-07T07:22:46;2.80;99.90
19292;DHT22;9779;51.756;7.450;2022-12-07T07:25:11;2.80;99.90
19292;DHT22;9779;51.756;7.450;2022-12-07T07:27:37;2.80;99.90
19292;DHT22;9779;51.756;7.450;2022-12-07T07:30:03;2.80;99.90
19292;DHT22;9779;51.756;7.450;2022-12-07T07:32:29;2.90;99.90
19292;DHT22;9779;51.756;7.450;2022-12-07T07:34:54;2.90;99.90
19292;DHT22;9779;51.756;7.450;2022-12-07T07:37:20;2.90;99.90
19292;DHT22;9779;51.756;7.450;2022-12-07T07:39:45;2.90;99.90
19292;DHT22;9779;51.756;7.450;2022-12-07T07:42:11;2.90;99.90
19292;DHT22;9779;51.756;7.450;2022-12-07T07:44:37;2.90;99.90
19292;DHT22;9779;51.756;7.450;2022-12-07T07:47:03;2.90;99.90
19292;DHT22;9779;51.756;7.450;2022-12-07T07:49:28;2.90;99.90
19292;DHT22;9779;51.756;7.450;2022-12-07T07:51:54;2.80;99.90
19292;DHT22;9779;51.756;7.450;2022-12-07T07:54:19;2.80;99.90
19292;DHT22;9779;51.756;7.450;2022-12-07T07:56:45;3.40;99.90
19292;DHT22;9779;51.756;7.450;2022-12-07T07:59:10;3.70;99.90
19292;DHT22;9779;51.756;7.450;2022-12-07T08:01:36;3.60;99.90
19292;DHT22;9779;51.756;7.450;2022-12-07T08:04:02;3.30;99.90
19292;DHT22;9779;51.756;7.450;2022-12-07T08:06:27;3.10;99.90
19292;DHT22;9779;51.756;7.450;2022-12-07T08:08:53;2.90;99.90
19292;DHT22;9779;51.756;7.450;2022-12-07T08:11:18;2.90;99.90
19292;DHT22;9779;51.756;7.450;2022-12-07T08:13:46;2.90;99.90
19292;DHT22;9779;51.756;7.450;2022-12-07T08:16:12;2.90;99.90
19292;DHT22;9779;51.756;7.450;2022-12-07T08:18:39;2.90;99.90
19292;DHT22;9779;51.756;7.450;2022-12-07T08:21:06;2.90;99.90
19292;DHT22;9779;51.756;7.450;2022-12-07T08:23:32;2.90;99.90
19292;DHT22;9779;51.756;7.450;2022-12-07T08:26:04;2.90;99.90
19292;DHT22;9779;51.756;7.450;2022-12-07T08:28:30;2.90;99.90
19292;DHT22;9779;51.756;7.450;2022-12-07T08:31:03;2.90;99.90
19292;DHT22;9779;51.756;7.450;2022-12-07T08:33:29;2.90;99.90
19292;DHT22;9779;51.756;7.450;2022-12-07T08:35:54;2.90;99.90
19292;DHT22;9779;51.756;7.450;2022-12-07T08:38:20;2.90;99.90
19292;DHT22;9779;51.756;7.450;2022-12-07T08:40:56;2.90;99.90
19292;DHT22;9779;51.756;7.450;2022-12-07T08:43:23;2.90;99.90
19292;DHT22;9779;51.756;7.450;2022-12-07T08:48:25;2.90;99.90
19292;DHT22;9779;51.756;7.450;2022-12-07T08:50:51;2.90;99.90
19292;DHT22;9779;51.756;7.450;2022-12-07T08:53:17;2.90;99.90
19292;DHT22;9779;51.756;7.450;2022-12-07T08:55:44;3.00;99.90
19292;DHT22;9779;51.756;7.450;2022-12-07T08:58:10;3.00;99.90
19292;DHT22;9779;51.756;7.450;2022-12-07T09:00:36;3.00;99.90
19292;DHT22;9779;51.756;7.450;2022-12-07T09:03:01;3.00;99.90
19292;DHT22;9779;51.756;7.450;2022-12-07T09:05:27;2.90;99.90
19292;DHT22;9779;51.756;7.450;2022-12-07T09:07:56;3.00;99.90
19292;DHT22;9779;51.756;7.450;2022-12-07T09:10:23;3.00;99.90
19292;DHT22;9779;51.756;7.450;2022-12-07T09:12:48;3.00;99.90
19292;DHT22;9779;51.756;7.450;2022-12-07T09:15:14;3.00;99.90
19292;DHT22;9779;51.756;7.450;2022-12-07T09:17:40;3.00;99.90
19292;DHT22;9779;51.756;7.450;2022-12-07T09:20:07;3.10;99.90
19292;DHT22;9779;51.756;7.450;2022-12-07T09:22:33;3.10;99.90
19292;DHT22;9779;51.756;7.450;2022-12-07T09:24:59;3.20;99.90
19292;DHT22;9779;51.756;7.450;2022-12-07T09:27:25;3.20;99.90
19292;DHT22;9779;51.756;7.450;2022-12-07T09:29:51;3.20;99.90
19292;DHT22;9779;51.756;7.450;2022-12-07T09:32:16;3.20;99.90
19292;DHT22;9779;51.756;7.450;2022-12-07T09:34:42;3.30;99.90
19292;DHT22;9779;51.756;7.450;2022-12-07T09:37:08;3.30;99.90
19292;DHT22;9779;51.756;7.450;2022-12-07T09:39:34;3.40;99.90
19292;DHT22;9779;51.756;7.450;2022-12-07T09:42:02;3.40;99.90
19292;DHT22;9779;51.756;7.450;2022-12-07T09:44:28;3.50;99.90
19292;DHT22;9779;51.756;7.450;2022-12-07T09:46:54;3.50;99.90
19292;DHT22;9779;51.756;7.450;2022-12-07T09:49:23;3.50;99.90
19292;DHT22;9779;51.756;7.450;2022-12-07T09:54:25;3.60;99.90
19292;DHT22;9779;51.756;7.450;2022-12-07T09:56:51;3.60;99.90
19292;DHT22;9779;51.756;7.450;2022-12-07T09:59:17;3.60;99.90
19292;DHT22;9779;51.756;7.450;2022-12-07T10:01:46;3.60;99.90
19292;DHT22;9779;51.756;7.450;2022-12-07T10:04:21;3.70;99.90
19292;DHT22;9779;51.756;7.450;2022-12-07T10:06:47;3.70;99.90
19292;DHT22;9779;51.756;7.450;2022-12-07T10:09:16;3.70;99.90
19292;DHT22;9779;51.756;7.450;2022-12-07T10:12:00;3.80;99.90
19292;DHT22;9779;51.756;7.450;2022-12-07T10:14:29;3.80;99.90
19292;DHT22;9779;51.756;7.450;2022-12-07T10:16:55;3.80;99.90
19292;DHT22;9779;51.756;7.450;2022-12-07T10:22:12;3.90;99.90
19292;DHT22;9779;51.756;7.450;2022-12-07T10:24:42;3.90;99.90
19292;DHT22;9779;51.756;7.450;2022-12-07T10:27:31;4.00;99.90
19292;DHT22;9779;51.756;7.450;2022-12-07T10:29:57;4.00;99.90
19292;DHT22;9779;51.756;7.450;2022-12-07T10:32:42;4.00;99.90
19292;DHT22;9779;51.756;7.450;2022-12-07T10:37:42;4.10;99.90
19292;DHT22;9779;51.756;7.450;2022-12-07T10:40:28;4.20;99.90
19292;DHT22;9779;51.756;7.450;2022-12-07T10:43:20;4.20;99.90
19292;DHT22;9779;51.756;7.450;2022-12-07T10:46:10;4.20;99.90
19292;DHT22;9779;51.756;7.450;2022-12-07T10:51:57;4.10;99.90
19292;DHT22;9779;51.756;7.450;2022-12-07T10:55:13;4.20;99.90
19292;DHT22;9779;51.756;7.450;2022-12-07T11:00:23;4.30;99.90
19292;DHT22;9779;51.756;7.450;2022-12-07T11:06:05;4.50;99.90
19292;DHT22;9779;51.756;7.450;2022-12-07T11:11:30;4.50;99.90
19292;DHT22;9779;51.756;7.450;2022-12-07T11:14:15;4.60;99.90
19292;DHT22;9779;51.756;7.450;2022-12-07T11:22:00;4.90;99.90
19292;DHT22;9779;51.756;7.450;2022-12-07T11:27:32;5.10;99.90
19292;DHT22;9779;51.756;7.450;2022-12-07T11:30:03;5.10;99.90
19292;DHT22;9779;51.756;7.450;2022-12-07T11:35:11;5.10;99.90
19292;DHT22;9779;51.756;7.450;2022-12-07T11:37:39;5.10;99.90
19292;DHT22;9779;51.756;7.450;2022-12-07T11:40:24;5.10;99.90
19292;DHT22;9779;51.756;7.450;2022-12-07T11:45:34;5.30;99.90
19292;DHT22;9779;51.756;7.450;2022-12-07T11:50:43;5.40;99.90
19292;DHT22;9779;51.756;7.450;2022-12-07T11:53:17;5.50;99.90
19292;DHT22;9779;51.756;7.450;2022-12-07T12:03:47;5.50;99.90
19292;DHT22;9779;51.756;7.450;2022-12-07T12:06:13;5.60;99.90
19292;DHT22;9779;51.756;7.450;2022-12-07T12:17:22;5.70;99.90
19292;DHT22;9779;51.756;7.450;2022-12-07T12:22:46;5.90;99.90
19292;DHT22;9779;51.756;7.450;2022-12-07T12:25:27;5.80;99.90
19292;DHT22;9779;51.756;7.450;2022-12-07T12:27:55;5.80;99.90
19292;DHT22;9779;51.756;7.450;2022-12-07T12:30:35;5.80;99.90
19292;DHT22;9779;51.756;7.450;2022-12-07T12:33:24;5.80;99.90
19292;DHT22;9779;51.756;7.450;2022-12-07T12:39:08;5.70;99.90
19292;DHT22;9779;51.756;7.450;2022-12-07T12:49:43;5.90;99.90
19292;DHT22;9779;51.756;7.450;2022-12-07T12:52:49;5.80;99.90
19292;DHT22;9779;51.756;7.450;2022-12-07T12:55:18;5.80;99.90
19292;DHT22;9779;51.756;7.450;2022-12-07T12:57:47;5.80;99.90
19292;DHT22;9779;51.756;7.450;2022-12-07T13:00:32;5.80;99.90
19292;DHT22;9779;51.756;7.450;2022-12-07T13:02:59;5.70;99.90
19292;DHT22;9779;51.756;7.450;2022-12-07T13:05:27;5.70;99.90
19292;DHT22;9779;51.756;7.450;2022-12-07T13:08:22;5.70;99.90
19292;DHT22;9779;51.756;7.450;2022-12-07T13:10:49;5.60;99.90
19292;DHT22;9779;51.756;7.450;2022-12-07T13:26:09;5.50;99.90
19292;DHT22;9779;51.756;7.450;2022-12-07T13:28:40;5.60;99.90
19292;DHT22;9779;51.756;7.450;2022-12-07T13:31:11;5.60;99.90
19292;DHT22;9779;51.756;7.450;2022-12-07T13:33:37;5.60;99.90
19292;DHT22;9779;51.756;7.450;2022-12-07T13:36:03;5.60;99.90
19292;DHT22;9779;51.756;7.450;2022-12-07T13:38:34;5.50;99.90
19292;DHT22;9779;51.756;7.450;2022-12-07T13:41:12;5.50;99.90
19292;DHT22;9779;51.756;7.450;2022-12-07T13:43:53;5.70;99.90
19292;DHT22;9779;51.756;7.450;2022-12-07T13:46:26;5.60;99.90
19292;DHT22;9779;51.756;7.450;2022-12-07T13:48:52;5.60;99.90
19292;DHT22;9779;51.756;7.450;2022-12-07T13:51:24;5.50;99.90
19292;DHT22;9779;51.756;7.450;2022-12-07T13:53:53;5.60;99.90
19292;DHT22;9779;51.756;7.450;2022-12-07T13:56:21;5.60;99.90
19292;DHT22;9779;51.756;7.450;2022-12-07T13:58:47;5.60;99.90
19292;DHT22;9779;51.756;7.450;2022-12-07T14:01:13;5.70;99.90
19292;DHT22;9779;51.756;7.450;2022-12-07T14:03:39;5.90;99.90
19292;DHT22;9779;51.756;7.450;2022-12-07T14:08:40;6.20;99.90
19292;DHT22;9779;51.756;7.450;2022-12-07T14:11:06;6.30;99.90
19292;DHT22;9779;51.756;7.450;2022-12-07T14:13:51;6.40;99.90
19292;DHT22;9779;51.756;7.450;2022-12-07T14:18:50;6.30;99.90
19292;DHT22;9779;51.756;7.450;2022-12-07T14:21:19;6.30;99.90
19292;DHT22;9779;51.756;7.450;2022-12-07T14:23:45;6.30;99.90
19292;DHT22;9779;51.756;7.450;2022-12-07T14:26:18;6.30;99.90
19292;DHT22;9779;51.756;7.450;2022-12-07T14:28:44;6.40;99.90
19292;DHT22;9779;51.756;7.450;2022-12-07T14:31:15;6.40;99.90
19292;DHT22;9779;51.756;7.450;2022-12-07T14:33:41;6.50;99.90
19292;DHT22;9779;51.756;7.450;2022-12-07T14:36:11;6.80;99.90
19292;DHT22;9779;51.756;7.450;2022-12-07T14:38:37;7.10;99.90
19292;DHT22;9779;51.756;7.450;2022-12-07T14:41:04;6.80;99.90
19292;DHT22;9779;51.756;7.450;2022-12-07T14:43:50;6.60;99.90
19292;DHT22;9779;51.756;7.450;2022-12-07T14:46:16;6.40;99.90
19292;DHT22;9779;51.756;7.450;2022-12-07T14:48:41;6.10;99.90
19292;DHT22;9779;51.756;7.450;2022-12-07T14:51:09;6.00;99.90
19292;DHT22;9779;51.756;7.450;2022-12-07T14:53:41;5.90;99.90
19292;DHT22;9779;51.756;7.450;2022-12-07T14:56:08;5.90;99.90
19292;DHT22;9779;51.756;7.450;2022-12-07T14:58:33;5.80;99.90
19292;DHT22;9779;51.756;7.450;2022-12-07T15:00:59;5.70;99.90
19292;DHT22;9779;51.756;7.450;2022-12-07T15:03:25;5.70;99.90
19292;DHT22;9779;51.756;7.450;2022-12-07T15:05:51;5.70;99.90
19292;DHT22;9779;51.756;7.450;2022-12-07T15:08:16;5.70;99.90
19292;DHT22;9779;51.756;7.450;2022-12-07T15:10:42;5.60;99.90
19292;DHT22;9779;51.756;7.450;2022-12-07T15:13:08;5.50;99.90
19292;DHT22;9779;51.756;7.450;2022-12-07T15:15:53;5.50;99.90
19292;DHT22;9779;51.756;7.450;2022-12-07T15:18:19;5.40;99.90
19292;DHT22;9779;51.756;7.450;2022-12-07T15:20:46;5.40;99.90
19292;DHT22;9779;51.756;7.450;2022-12-07T15:23:12;5.40;99.90
19292;DHT22;9779;51.756;7.450;2022-12-07T15:25:45;5.30;99.90
19292;DHT22;9779;51.756;7.450;2022-12-07T15:28:11;5.30;99.90
19292;DHT22;9779;51.756;7.450;2022-12-07T15:30:38;5.30;99.90
19292;DHT22;9779;51.756;7.450;2022-12-07T15:33:04;5.30;99.90
19292;DHT22;9779;51.756;7.450;2022-12-07T15:35:29;5.30;99.90
19292;DHT22;9779;51.756;7.450;2022-12-07T15:37:55;5.30;99.90
19292;DHT22;9779;51.756;7.450;2022-12-07T15:40:20;5.20;99.90
19292;DHT22;9779;51.756;7.450;2022-12-07T15:42:46;5.20;99.90
19292;DHT22;9779;51.756;7.450;2022-12-07T15:45:12;5.20;99.90
19292;DHT22;9779;51.756;7.450;2022-12-07T15:47:43;5.10;99.90
19292;DHT22;9779;51.756;7.450;2022-12-07T15:50:15;5.10;99.90
19292;DHT22;9779;51.756;7.450;2022-12-07T15:52:41;5.10;99.90
19292;DHT22;9779;51.756;7.450;2022-12-07T15:55:08;5.00;99.90
19292;DHT22;9779;51.756;7.450;2022-12-07T15:57:35;5.00;99.90
19292;DHT22;9779;51.756;7.450;2022-12-07T16:00:03;5.00;99.90
19292;DHT22;9779;51.756;7.450;2022-12-07T16:02:29;5.00;99.90
19292;DHT22;9779;51.756;7.450;2022-12-07T16:04:54;4.90;99.90
19292;DHT22;9779;51.756;7.450;2022-12-07T16:07:20;5.00;99.90
19292;DHT22;9779;51.756;7.450;2022-12-07T16:09:46;4.90;99.90
19292;DHT22;9779;51.756;7.450;2022-12-07T16:12:13;4.90;99.90
19292;DHT22;9779;51.756;7.450;2022-12-07T16:14:39;4.80;99.90
19292;DHT22;9779;51.756;7.450;2022-12-07T16:17:07;4.80;99.90
19292;DHT22;9779;51.756;7.450;2022-12-07T16:19:33;4.80;99.90
19292;DHT22;9779;51.756;7.450;2022-12-07T16:21:59;4.80;99.90
19292;DHT22;9779;51.756;7.450;2022-12-07T16:24:25;4.80;99.90
19292;DHT22;9779;51.756;7.450;2022-12-07T16:26:51;4.80;99.90
19292;DHT22;9779;51.756;7.450;2022-12-07T16:29:19;4.70;99.90
19292;DHT22;9779;51.756;7.450;2022-12-07T16:31:45;4.70;99.90
19292;DHT22;9779;51.756;7.450;2022-12-07T16:34:10;4.70;99.90
19292;DHT22;9779;51.756;7.450;2022-12-07T16:36:36;4.80;99.90
19292;DHT22;9779;51.756;7.450;2022-12-07T16:39:02;4.70;99.90
19292;DHT22;9779;51.756;7.450;2022-12-07T16:41:28;4.80;99.90
19292;DHT22;9779;51.756;7.450;2022-12-07T16:43:53;4.70;99.90
19292;DHT22;9779;51.756;7.450;2022-12-07T16:46:19;4.70;99.90
19292;DHT22;9779;51.756;7.450;2022-12-07T16:48:45;4.70;99.90
19292;DHT22;9779;51.756;7.450;2022-12-07T16:51:12;4.70;99.90
19292;DHT22;9779;51.756;7.450;2022-12-07T16:53:39;4.70;99.90
19292;DHT22;9779;51.756;7.450;2022-12-07T16:56:10;4.60;99.90
19292;DHT22;9779;51.756;7.450;2022-12-07T16:58:36;4.60;99.90
19292;DHT22;9779;51.756;7.450;2022-12-07T17:01:10;4.60;99.90
19292;DHT22;9779;51.756;7.450;2022-12-07T17:03:35;4.60;99.90
19292;DHT22;9779;51.756;7.450;2022-12-07T17:06:01;4.60;99.90
19292;DHT22;9779;51.756;7.450;2022-12-07T17:08:26;4.50;99.90
19292;DHT22;9779;51.756;7.450;2022-12-07T17:10:52;4.50;99.90
19292;DHT22;9779;51.756;7.450;2022-12-07T17:13:18;4.60;99.90
19292;DHT22;9779;51.756;7.450;2022-12-07T17:16:05;4.60;99.90
19292;DHT22;9779;51.756;7.450;2022-12-07T17:18:34;4.50;99.90
19292;DHT22;9779;51.756;7.450;2022-12-07T17:21:08;4.50;99.90
19292;DHT22;9779;51.756;7.450;2022-12-07T17:23:34;4.50;99.90
19292;DHT22;9779;51.756;7.450;2022-12-07T17:26:08;4.50;99.90
19292;DHT22;9779;51.756;7.450;2022-12-07T17:28:35;4.40;99.90
19292;DHT22;9779;51.756;7.450;2022-12-07T17:31:03;4.40;99.90
19292;DHT22;9779;51.756;7.450;2022-12-07T17:33:29;4.40;99.90
19292;DHT22;9779;51.756;7.450;2022-12-07T17:35:55;4.40;99.90
19292;DHT22;9779;51.756;7.450;2022-12-07T17:38:21;4.40;99.90
19292;DHT22;9779;51.756;7.450;2022-12-07T17:40:46;4.40;99.90
19292;DHT22;9779;51.756;7.450;2022-12-07T17:43:12;4.40;99.90
19292;DHT22;9779;51.756;7.450;2022-12-07T17:45:37;4.40;99.90
19292;DHT22;9779;51.756;7.450;2022-12-07T17:48:04;4.30;99.90
19292;DHT22;9779;51.756;7.450;2022-12-07T17:50:30;4.40;99.90
19292;DHT22;9779;51.756;7.450;2022-12-07T17:53:14;4.40;99.90
19292;DHT22;9779;51.756;7.450;2022-12-07T17:55:39;4.40;99.90
19292;DHT22;9779;51.756;7.450;2022-12-07T17:58:05;4.40;99.90
19292;DHT22;9779;51.756;7.450;2022-12-07T18:00:31;4.40;99.90
19292;DHT22;9779;51.756;7.450;2022-12-07T18:03:05;4.40;99.90
19292;DHT22;9779;51.756;7.450;2022-12-07T18:05:56;4.40;99.90